Time;durP1;ratioP1;P1;durP2;ratioP2;P2;SDS_P1;SDS_P2;PMS_P1;PMS_P2;Temp;Humidity;BMP_temperature;BMP_pressure;BME280_temperature;BME280_humidity;BME280_pressure;Samples;Min_cycle;Max_cycle;Signal;HPM_P1;HPM_P2
2023/03/06 00:00:58;;;;;;;13.60;7.68;;;4.50;99.90;;;;;;5008545;28;20505;-49
2023/03/06 00:03:26;;;;;;;8.85;6.43;;;4.50;99.90;;;;;;5006676;28;20325;-49
2023/03/06 00:05:56;;;;;;;11.25;8.27;;;4.50;99.90;;;;;;5006503;28;20034;-49
2023/03/06 00:08:22;;;;;;;13.20;7.72;;;4.50;99.90;;;;;;5006437;28;20093;-47
2023/03/06 00:10:48;;;;;;;12.73;8.18;;;4.50;99.90;;;;;;5007034;28;20033;-48
2023/03/06 00:13:18;;;;;;;9.85;7.13;;;4.50;99.90;;;;;;5009962;28;20482;-49
2023/03/06 00:15:44;;;;;;;14.55;8.23;;;4.60;99.90;;;;;;5014901;28;20109;-47
2023/03/06 00:18:10;;;;;;;12.23;8.30;;;4.50;99.90;;;;;;5015323;28;20117;-46
2023/03/06 00:20:38;;;;;;;12.02;8.55;;;4.50;99.90;;;;;;5015157;28;20513;-46
2023/03/06 00:23:03;;;;;;;10.95;6.97;;;4.50;99.90;;;;;;5014202;28;20478;-47
2023/03/06 00:25:29;;;;;;;10.25;7.70;;;4.50;99.90;;;;;;5015366;28;20089;-46
2023/03/06 00:27:54;;;;;;;17.02;7.65;;;4.60;99.90;;;;;;5015160;28;20493;-51
2023/03/06 00:30:22;;;;;;;12.23;7.70;;;4.50;99.90;;;;;;5015193;28;20099;-44
2023/03/06 00:32:48;;;;;;;13.93;7.95;;;4.60;99.90;;;;;;5015104;28;20053;-47
2023/03/06 00:35:15;;;;;;;11.38;8.52;;;4.50;99.90;;;;;;5014914;28;20022;-47
2023/03/06 00:37:41;;;;;;;11.50;8.15;;;4.60;99.90;;;;;;5014666;28;20050;-46
2023/03/06 00:40:10;;;;;;;9.73;7.65;;;4.60;99.90;;;;;;5013699;28;20120;-51
2023/03/06 00:42:36;;;;;;;14.90;8.52;;;4.70;99.90;;;;;;5015024;28;20038;-46
2023/03/06 00:45:02;;;;;;;13.45;7.90;;;4.70;99.90;;;;;;5014341;28;20018;-43
2023/03/06 00:47:27;;;;;;;12.60;7.53;;;4.80;99.90;;;;;;5014673;28;20594;-46
2023/03/06 00:49:53;;;;;;;14.73;8.20;;;4.70;99.90;;;;;;5040113;23;20320;-50
2023/03/06 00:52:19;;;;;;;12.93;8.35;;;4.80;99.90;;;;;;5030058;28;20021;-47
2023/03/06 00:54:45;;;;;;;11.98;7.97;;;4.80;99.90;;;;;;5033490;28;20384;-48
2023/03/06 00:57:10;;;;;;;16.38;11.52;;;4.70;99.90;;;;;;5034062;28;20021;-46
2023/03/06 00:59:36;;;;;;;17.25;11.05;;;4.70;99.90;;;;;;5041023;28;20029;-49
2023/03/06 01:02:01;;;;;;;17.70;9.45;;;4.70;99.90;;;;;;5054128;28;20068;-47
2023/03/06 01:04:27;;;;;;;11.38;7.57;;;4.60;99.90;;;;;;5054114;28;20036;-47
2023/03/06 01:06:52;;;;;;;13.48;7.85;;;4.60;99.90;;;;;;5054099;28;20029;-42
2023/03/06 01:09:18;;;;;;;14.93;8.00;;;4.50;99.90;;;;;;5052735;28;20499;-50
2023/03/06 01:11:43;;;;;;;10.98;7.30;;;4.50;99.90;;;;;;5053551;28;20076;-46
2023/03/06 01:14:09;;;;;;;11.75;7.38;;;4.40;99.90;;;;;;5054123;28;20040;-46
2023/03/06 01:16:35;;;;;;;10.65;8.07;;;4.40;99.90;;;;;;5053718;28;20167;-50
2023/03/06 01:19:00;;;;;;;13.55;8.10;;;4.40;99.90;;;;;;5053461;28;20025;-50
2023/03/06 01:21:26;;;;;;;11.98;7.97;;;4.40;99.90;;;;;;5053623;28;20047;-50
2023/03/06 01:23:51;;;;;;;11.65;8.48;;;4.40;99.90;;;;;;5053812;28;20053;-44
2023/03/06 01:26:17;;;;;;;14.10;7.57;;;4.30;99.90;;;;;;5053111;28;20096;-43
2023/03/06 01:28:43;;;;;;;11.90;8.00;;;4.30;99.90;;;;;;5052370;28;20028;-46
2023/03/06 01:31:09;;;;;;;13.75;7.25;;;4.20;99.90;;;;;;5053652;28;20024;-47
2023/03/06 01:33:35;;;;;;;11.10;7.35;;;4.30;99.90;;;;;;5053566;28;20033;-50
2023/03/06 01:36:06;;;;;;;10.10;7.35;;;4.20;99.90;;;;;;5053467;28;20111;-49
2023/03/06 01:38:32;;;;;;;15.07;8.15;;;4.30;99.90;;;;;;5053558;28;20132;-45
2023/03/06 01:40:58;;;;;;;11.48;7.47;;;4.30;99.90;;;;;;5051992;28;20071;-45
2023/03/06 01:43:26;;;;;;;11.30;7.32;;;4.30;99.90;;;;;;5053396;28;20393;-46
2023/03/06 01:46:29;;;;;;;12.73;7.88;;;4.20;99.90;;;;;;5053695;28;20092;-47
2023/03/06 01:49:13;;;;;;;13.25;7.68;;;4.30;99.90;;;;;;5051764;28;20086;-48
2023/03/06 01:51:51;;;;;;;9.55;6.55;;;4.20;99.90;;;;;;5053086;28;20029;-48
2023/03/06 01:54:24;;;;;;;15.30;7.72;;;4.20;99.90;;;;;;5053298;28;20021;-48
2023/03/06 01:56:54;;;;;;;13.93;7.38;;;4.20;99.90;;;;;;5053043;28;20057;-50
2023/03/06 01:59:20;;;;;;;12.57;7.32;;;4.20;99.90;;;;;;5052589;28;20025;-46
2023/03/06 02:01:47;;;;;;;12.65;8.13;;;4.20;99.90;;;;;;5052968;28;20096;-47
2023/03/06 02:04:12;;;;;;;9.98;7.47;;;4.30;99.90;;;;;;5052309;28;20021;-46
2023/03/06 02:06:42;;;;;;;11.23;7.50;;;4.40;99.90;;;;;;5038188;28;20021;-46
2023/03/06 02:09:08;;;;;;;15.30;7.65;;;4.20;99.90;;;;;;5032817;28;20401;-45
2023/03/06 02:11:34;;;;;;;11.65;7.80;;;4.20;99.90;;;;;;5032750;28;20401;-48
2023/03/06 02:13:59;;;;;;;10.18;7.13;;;4.20;99.90;;;;;;5032965;28;20034;-44
2023/03/06 02:16:28;;;;;;;14.80;7.55;;;4.30;99.90;;;;;;5036291;28;20029;-47
2023/03/06 02:18:54;;;;;;;11.55;7.57;;;4.20;99.90;;;;;;5044403;28;20443;-46
2023/03/06 02:21:24;;;;;;;9.70;6.65;;;4.20;99.90;;;;;;5043116;28;20029;-46
2023/03/06 02:24:04;;;;;;;8.05;6.30;;;4.20;99.90;;;;;;5042635;28;20028;-43
2023/03/06 02:26:31;;;;;;;8.63;5.30;;;4.20;99.90;;;;;;5046405;28;20031;-49
2023/03/06 02:28:58;;;;;;;9.93;5.82;;;4.20;99.90;;;;;;5045642;28;20025;-47
2023/03/06 02:31:28;;;;;;;9.75;5.88;;;4.40;99.90;;;;;;5052456;28;20021;-44
2023/03/06 02:34:05;;;;;;;7.53;6.20;;;4.30;99.90;;;;;;5052348;28;20027;-44
2023/03/06 02:36:35;;;;;;;8.80;5.50;;;4.30;99.90;;;;;;5051574;28;20029;-46
2023/03/06 02:39:01;;;;;;;9.30;5.65;;;4.40;99.90;;;;;;5051886;28;20039;-45
2023/03/06 02:41:27;;;;;;;7.75;5.75;;;4.30;99.90;;;;;;5052203;28;20048;-45
2023/03/06 02:43:53;;;;;;;7.55;5.30;;;4.30;99.90;;;;;;5052087;28;20025;-47
2023/03/06 02:46:18;;;;;;;10.40;6.40;;;4.30;99.90;;;;;;5052076;28;20024;-48
2023/03/06 02:48:44;;;;;;;7.25;5.30;;;4.30;99.90;;;;;;5051965;28;20056;-48
2023/03/06 02:51:09;;;;;;;9.00;6.22;;;4.30;99.90;;;;;;5051846;28;20045;-47
2023/03/06 02:53:35;;;;;;;6.10;5.32;;;4.30;99.90;;;;;;5050224;28;20326;-49
2023/03/06 02:56:00;;;;;;;7.72;5.93;;;4.30;99.90;;;;;;5049625;28;20024;-47
2023/03/06 02:58:26;;;;;;;23.30;12.90;;;4.20;99.90;;;;;;5051284;28;20103;-48
2023/03/06 03:00:51;;;;;;;9.23;5.85;;;4.30;99.90;;;;;;5050255;28;20044;-48
2023/03/06 03:03:17;;;;;;;8.85;5.68;;;4.30;99.90;;;;;;5048977;28;20025;-44
2023/03/06 03:05:43;;;;;;;9.38;5.65;;;4.40;99.90;;;;;;5051526;28;20028;-46
2023/03/06 03:08:08;;;;;;;7.68;5.30;;;4.40;99.90;;;;;;5051466;28;20554;-53
2023/03/06 03:10:34;;;;;;;9.27;5.28;;;4.40;99.90;;;;;;5051370;28;20507;-43
2023/03/06 03:13:00;;;;;;;7.75;5.10;;;4.40;99.90;;;;;;5051723;28;20037;-45
2023/03/06 03:15:26;;;;;;;7.45;5.70;;;4.40;99.90;;;;;;5051505;28;20121;-48
2023/03/06 03:17:51;;;;;;;7.78;5.70;;;4.40;99.90;;;;;;5051352;28;20104;-46
2023/03/06 03:20:20;;;;;;;7.75;5.47;;;4.40;99.90;;;;;;5051620;28;20067;-46
2023/03/06 03:22:51;;;;;;;8.70;5.78;;;4.40;99.90;;;;;;5051570;28;20024;-47
2023/03/06 03:25:17;;;;;;;9.35;5.78;;;4.40;99.90;;;;;;5051688;28;20025;-45
2023/03/06 03:27:42;;;;;;;6.30;4.95;;;4.30;99.90;;;;;;5051564;28;20079;-47
2023/03/06 03:30:09;;;;;;;7.68;4.80;;;4.30;99.90;;;;;;5049836;28;20031;-48
2023/03/06 03:32:34;;;;;;;7.10;5.20;;;4.30;99.90;;;;;;5051316;28;20472;-50
2023/03/06 03:35:00;;;;;;;6.13;5.03;;;4.30;99.90;;;;;;5051466;28;20053;-47
2023/03/06 03:37:25;;;;;;;8.65;5.68;;;4.30;99.90;;;;;;5049843;28;20025;-48
2023/03/06 03:39:51;;;;;;;6.88;5.07;;;4.30;99.90;;;;;;5051262;28;20029;-44
2023/03/06 03:42:17;;;;;;;8.82;5.95;;;4.30;99.90;;;;;;5051268;28;20021;-44
2023/03/06 03:44:42;;;;;;;7.75;5.38;;;4.30;99.90;;;;;;5051198;28;20021;-49
2023/03/06 03:47:08;;;;;;;7.53;5.43;;;4.30;99.90;;;;;;5051176;28;20396;-52
2023/03/06 03:49:33;;;;;;;8.32;5.45;;;4.30;99.90;;;;;;5054061;28;20036;-45
2023/03/06 03:51:59;;;;;;;6.93;5.53;;;4.30;99.90;;;;;;5055458;28;20035;-45
2023/03/06 03:54:24;;;;;;;7.18;5.25;;;4.30;99.90;;;;;;5055153;28;20060;-50
2023/03/06 03:56:49;;;;;;;5.60;4.72;;;4.30;99.90;;;;;;5055023;28;20036;-46
2023/03/06 03:59:15;;;;;;;6.75;5.40;;;4.30;99.90;;;;;;5055196;28;20029;-45
2023/03/06 04:01:40;;;;;;;7.53;5.40;;;4.30;99.90;;;;;;5054973;28;20079;-47
2023/03/06 04:04:06;;;;;;;7.45;5.75;;;4.40;99.90;;;;;;5054893;28;20388;-50
2023/03/06 04:06:32;;;;;;;7.90;5.18;;;4.40;99.90;;;;;;5055034;28;20686;-50
2023/03/06 04:08:57;;;;;;;7.13;5.28;;;4.50;99.90;;;;;;5054939;28;20488;-48
2023/03/06 04:11:23;;;;;;;8.27;5.28;;;4.40;99.90;;;;;;5054753;28;20032;-47
2023/03/06 04:13:49;;;;;;;6.60;4.97;;;4.40;99.90;;;;;;5054797;28;20037;-48
2023/03/06 04:16:14;;;;;;;8.02;5.30;;;4.40;99.90;;;;;;5054784;28;20025;-46
2023/03/06 04:18:40;;;;;;;8.93;5.28;;;4.40;99.90;;;;;;5054679;28;20025;-47
2023/03/06 04:21:05;;;;;;;8.57;5.57;;;4.50;99.90;;;;;;5054869;28;20040;-49
2023/03/06 04:23:31;;;;;;;9.10;5.55;;;4.50;99.90;;;;;;5054748;28;20374;-52
2023/03/06 04:25:56;;;;;;;9.07;5.13;;;4.50;99.90;;;;;;5054625;28;20082;-46
2023/03/06 04:28:22;;;;;;;6.72;5.22;;;4.40;99.90;;;;;;5054410;28;20036;-45
2023/03/06 04:30:48;;;;;;;8.82;5.60;;;4.50;99.90;;;;;;5054704;28;20439;-47
2023/03/06 04:33:13;;;;;;;7.15;5.47;;;4.50;99.90;;;;;;5054588;28;20044;-49
2023/03/06 04:35:39;;;;;;;8.63;5.93;;;4.40;99.90;;;;;;5054439;28;20036;-47
2023/03/06 04:38:04;;;;;;;7.65;5.90;;;4.40;99.90;;;;;;5054817;28;20037;-46
2023/03/06 04:40:33;;;;;;;10.48;6.05;;;4.40;99.90;;;;;;5054163;28;20087;-47
2023/03/06 04:42:59;;;;;;;14.43;6.40;;;4.50;99.90;;;;;;5053175;28;20052;-46
2023/03/06 04:45:26;;;;;;;8.93;6.00;;;4.40;99.90;;;;;;5054490;28;20052;-50
2023/03/06 04:47:52;;;;;;;10.13;6.22;;;4.40;99.90;;;;;;5054249;28;20041;-48
2023/03/06 04:50:19;;;;;;;8.65;6.03;;;4.40;99.90;;;;;;5054099;28;20036;-48
2023/03/06 04:52:44;;;;;;;8.52;6.20;;;4.30;99.90;;;;;;5054470;28;20438;-49
2023/03/06 04:55:13;;;;;;;9.77;6.65;;;4.30;99.90;;;;;;5054269;28;20108;-54
2023/03/06 04:57:40;;;;;;;8.05;6.40;;;4.30;99.90;;;;;;5053785;28;20524;-50
2023/03/06 05:00:11;;;;;;;9.57;6.15;;;4.40;99.90;;;;;;5053183;28;20059;-46
2023/03/06 05:02:37;;;;;;;9.82;6.85;;;4.40;99.90;;;;;;5054082;28;20100;-46
2023/03/06 05:05:03;;;;;;;9.43;6.47;;;4.40;99.90;;;;;;5053846;28;20142;-49
2023/03/06 05:07:29;;;;;;;9.40;6.07;;;4.30;99.90;;;;;;5053721;28;20032;-49
2023/03/06 05:09:54;;;;;;;10.73;5.82;;;4.30;99.90;;;;;;5053603;28;20029;-50
2023/03/06 05:12:20;;;;;;;7.97;6.53;;;4.20;99.90;;;;;;5053662;28;20480;-49
2023/03/06 05:14:45;;;;;;;6.97;5.57;;;4.20;99.90;;;;;;5053826;28;20027;-44
2023/03/06 05:17:11;;;;;;;10.10;6.35;;;4.20;99.90;;;;;;5053823;28;20032;-50
2023/03/06 05:19:36;;;;;;;9.40;5.90;;;4.30;99.90;;;;;;5053893;28;20029;-45
2023/03/06 05:22:02;;;;;;;8.93;7.10;;;4.30;99.90;;;;;;5053617;28;20045;-47
2023/03/06 05:24:28;;;;;;;10.55;6.35;;;4.30;99.90;;;;;;5053832;28;20064;-53
2023/03/06 05:26:53;;;;;;;12.77;6.68;;;4.20;99.90;;;;;;5053647;28;20362;-52
2023/03/06 05:29:19;;;;;;;11.45;6.50;;;4.20;99.90;;;;;;5052081;28;20025;-48
2023/03/06 05:31:45;;;;;;;11.13;6.88;;;4.20;99.90;;;;;;5053472;28;20033;-47
2023/03/06 05:34:14;;;;;;;10.98;7.13;;;4.20;99.90;;;;;;5053531;28;20036;-46
2023/03/06 05:36:41;;;;;;;11.57;6.78;;;4.20;99.90;;;;;;5054830;28;20399;-51
2023/03/06 05:39:07;;;;;;;9.48;6.57;;;4.20;99.90;;;;;;5053408;28;20172;-49
2023/03/06 05:41:32;;;;;;;9.05;6.43;;;4.10;99.90;;;;;;5053785;28;20046;-46
2023/03/06 05:43:58;;;;;;;10.45;6.90;;;4.00;99.90;;;;;;5054025;28;20419;-50
2023/03/06 05:46:24;;;;;;;11.32;7.03;;;4.00;99.90;;;;;;5054216;28;20071;-47
2023/03/06 05:48:52;;;;;;;10.23;7.68;;;4.00;99.90;;;;;;5053752;28;20069;-46
2023/03/06 05:51:18;;;;;;;11.35;7.47;;;3.90;99.90;;;;;;5055636;28;20227;-49
2023/03/06 05:53:43;;;;;;;11.40;7.18;;;4.00;99.90;;;;;;5052035;28;20051;-46
2023/03/06 05:56:09;;;;;;;11.10;6.45;;;4.00;99.90;;;;;;5053038;28;20024;-47
2023/03/06 05:58:35;;;;;;;12.50;7.32;;;4.00;99.90;;;;;;5052805;28;20048;-48
2023/03/06 06:01:11;;;;;;;10.35;6.68;;;4.00;99.90;;;;;;5052873;28;20028;-50
2023/03/06 06:03:37;;;;;;;13.82;7.93;;;4.00;99.90;;;;;;5053098;28;20504;-45
2023/03/06 06:06:11;;;;;;;10.95;7.43;;;4.10;99.90;;;;;;5052944;28;20091;-46
2023/03/06 06:08:37;;;;;;;9.95;7.30;;;4.10;99.90;;;;;;5053235;28;20060;-49
2023/03/06 06:11:08;;;;;;;11.38;7.65;;;4.10;99.90;;;;;;5052093;28;20067;-46
2023/03/06 06:13:34;;;;;;;11.52;7.22;;;4.20;99.90;;;;;;5052550;28;20095;-45
2023/03/06 06:16:06;;;;;;;11.32;6.43;;;4.20;99.90;;;;;;5052682;28;20099;-45
2023/03/06 06:18:31;;;;;;;13.75;8.02;;;4.20;99.90;;;;;;5051235;28;20035;-48
2023/03/06 06:20:57;;;;;;;11.10;7.35;;;4.20;99.90;;;;;;5052508;28;20396;-46
2023/03/06 06:23:22;;;;;;;12.82;8.60;;;4.20;99.90;;;;;;5052803;28;20025;-48
2023/03/06 06:25:48;;;;;;;12.50;7.97;;;4.10;99.90;;;;;;5052183;28;20099;-48
2023/03/06 06:28:13;;;;;;;12.75;8.32;;;4.10;99.90;;;;;;5052404;28;20031;-46
2023/03/06 06:30:39;;;;;;;11.35;7.65;;;4.10;99.90;;;;;;5051014;28;20107;-47
2023/03/06 06:33:04;;;;;;;10.70;8.02;;;4.00;99.90;;;;;;5052361;28;20025;-45
2023/03/06 06:35:33;;;;;;;17.80;8.35;;;4.00;99.90;;;;;;5052075;28;20533;-50
2023/03/06 06:37:59;;;;;;;11.10;8.02;;;4.00;99.90;;;;;;5052046;28;20032;-46
2023/03/06 06:40:26;;;;;;;14.75;9.10;;;4.00;99.90;;;;;;5051944;28;20025;-45
2023/03/06 06:42:52;;;;;;;12.20;8.75;;;4.00;99.90;;;;;;5052221;28;20017;-46
2023/03/06 06:45:17;;;;;;;11.30;7.55;;;4.00;99.90;;;;;;5052170;28;20341;-44
2023/03/06 06:47:43;;;;;;;13.40;8.55;;;3.90;99.90;;;;;;5051738;28;20028;-45
2023/03/06 06:50:12;;;;;;;12.65;8.27;;;3.90;99.90;;;;;;5045030;23;20133;-47
2023/03/06 06:52:38;;;;;;;12.48;8.77;;;4.00;99.90;;;;;;4992536;28;20025;-52
2023/03/06 06:55:04;;;;;;;15.48;8.02;;;4.00;99.90;;;;;;4992563;28;20042;-49
2023/03/06 06:57:29;;;;;;;14.40;9.30;;;4.00;99.90;;;;;;4992397;28;20371;-48
2023/03/06 06:59:55;;;;;;;12.32;8.45;;;4.00;99.90;;;;;;4992399;28;20398;-44
2023/03/06 07:02:21;;;;;;;11.57;8.32;;;4.00;99.90;;;;;;4991578;28;20022;-49
2023/03/06 07:04:47;;;;;;;13.02;8.77;;;4.00;99.90;;;;;;4992356;28;20026;-46
2023/03/06 07:07:12;;;;;;;14.40;8.98;;;4.00;99.90;;;;;;4992516;28;20044;-47
2023/03/06 07:09:40;;;;;;;14.70;9.40;;;4.10;99.90;;;;;;4992053;28;20038;-48
2023/03/06 07:12:07;;;;;;;13.57;8.93;;;4.20;99.90;;;;;;4992748;28;20027;-46
2023/03/06 07:14:32;;;;;;;16.10;9.25;;;4.30;99.90;;;;;;4991515;28;20417;-48
2023/03/06 07:16:58;;;;;;;15.70;9.82;;;4.30;99.90;;;;;;4992803;28;20026;-46
2023/03/06 07:19:23;;;;;;;13.88;9.23;;;4.40;99.90;;;;;;4991428;28;20109;-51
2023/03/06 07:21:49;;;;;;;14.90;10.05;;;4.50;99.90;;;;;;4994130;28;20025;-49
2023/03/06 07:24:15;;;;;;;14.30;9.45;;;4.60;99.90;;;;;;4993555;28;20019;-47
2023/03/06 07:26:46;;;;;;;17.00;10.63;;;4.70;99.90;;;;;;4993030;28;20054;-50
2023/03/06 07:29:11;;;;;;;14.63;10.13;;;4.70;99.90;;;;;;4992785;28;20521;-45
2023/03/06 07:31:37;;;;;;;16.77;10.20;;;4.60;99.90;;;;;;4991787;28;20133;-47
2023/03/06 07:34:02;;;;;;;14.50;9.25;;;4.60;99.90;;;;;;4992877;28;20037;-49
2023/03/06 07:36:28;;;;;;;14.13;10.07;;;4.60;99.90;;;;;;4992097;28;20518;-50
2023/03/06 07:38:53;;;;;;;14.20;9.95;;;4.70;99.90;;;;;;4992075;28;20034;-47
2023/03/06 07:41:19;;;;;;;14.75;9.68;;;4.60;99.90;;;;;;4991290;28;20022;-46
2023/03/06 07:43:45;;;;;;;18.33;10.77;;;4.60;99.90;;;;;;4992901;28;20446;-50
2023/03/06 07:46:13;;;;;;;12.43;9.15;;;4.70;99.90;;;;;;4991858;28;20508;-50
2023/03/06 07:48:39;;;;;;;17.95;10.52;;;4.60;99.90;;;;;;4993239;28;20083;-49
2023/03/06 07:51:07;;;;;;;16.27;9.73;;;4.70;99.90;;;;;;4993470;28;20034;-46
2023/03/06 07:53:33;;;;;;;19.70;11.10;;;4.70;99.90;;;;;;4994610;28;20026;-46
2023/03/06 07:55:59;;;;;;;14.93;10.05;;;4.70;99.90;;;;;;4994570;28;20030;-49
2023/03/06 07:58:25;;;;;;;16.63;10.82;;;4.70;99.90;;;;;;4992373;28;20169;-47
2023/03/06 08:00:51;;;;;;;16.33;11.02;;;4.60;99.90;;;;;;4992306;28;20026;-48
2023/03/06 08:03:17;;;;;;;14.57;10.43;;;4.70;99.90;;;;;;4992211;28;20390;-46
2023/03/06 08:05:43;;;;;;;15.93;10.45;;;4.60;99.90;;;;;;4992528;28;20199;-47
2023/03/06 08:08:10;;;;;;;16.30;9.90;;;4.80;99.90;;;;;;4992077;28;20536;-47
2023/03/06 08:10:36;;;;;;;19.27;12.40;;;4.80;99.90;;;;;;4991435;28;20490;-54
2023/03/06 08:13:01;;;;;;;14.60;10.18;;;4.80;99.90;;;;;;4993003;28;20037;-50
2023/03/06 08:15:27;;;;;;;16.48;10.05;;;4.90;99.90;;;;;;4992378;28;20035;-49
2023/03/06 08:17:52;;;;;;;15.65;9.90;;;5.00;99.90;;;;;;4992487;28;20429;-48
2023/03/06 08:20:18;;;;;;;16.83;10.75;;;5.00;99.90;;;;;;4992512;28;20034;-51
2023/03/06 08:22:44;;;;;;;16.77;9.88;;;5.10;99.90;;;;;;4992548;28;20026;-45
2023/03/06 08:25:12;;;;;;;17.60;9.40;;;5.10;99.90;;;;;;4992327;28;20479;-47
2023/03/06 08:27:37;;;;;;;14.57;10.00;;;5.10;99.90;;;;;;4992118;28;20029;-47
2023/03/06 08:30:04;;;;;;;16.70;10.88;;;5.20;99.90;;;;;;4992288;28;20414;-49
2023/03/06 08:32:29;;;;;;;14.93;10.38;;;5.30;99.90;;;;;;4992387;28;20030;-47
2023/03/06 08:34:55;;;;;;;15.30;10.43;;;5.30;99.90;;;;;;4992710;28;20026;-49
2023/03/06 08:37:20;;;;;;;17.38;10.80;;;5.20;99.90;;;;;;4995831;28;20054;-47
2023/03/06 08:39:46;;;;;;;14.93;10.65;;;5.20;99.90;;;;;;4995665;28;20026;-47
2023/03/06 08:42:11;;;;;;;16.73;10.35;;;5.30;99.90;;;;;;4995761;28;20023;-48
2023/03/06 08:44:37;;;;;;;20.08;10.90;;;5.40;99.90;;;;;;4996102;28;20509;-48
2023/03/06 08:47:02;;;;;;;15.70;11.10;;;5.50;99.90;;;;;;4995167;28;20034;-50
2023/03/06 08:49:29;;;;;;;16.52;10.90;;;5.60;99.90;;;;;;4995888;28;20088;-46
2023/03/06 08:51:54;;;;;;;18.00;11.05;;;5.90;99.90;;;;;;4995679;28;20422;-49
2023/03/06 08:54:20;;;;;;;18.40;10.77;;;6.00;99.90;;;;;;4995646;28;20038;-50
2023/03/06 08:56:46;;;;;;;14.40;10.48;;;6.20;99.90;;;;;;4995520;28;20125;-51
2023/03/06 08:59:12;;;;;;;18.23;12.20;;;6.20;99.90;;;;;;5000418;28;20037;-48
2023/03/06 09:01:39;;;;;;;16.35;10.00;;;6.30;99.90;;;;;;5000800;28;20022;-50
2023/03/06 09:04:07;;;;;;;17.95;10.50;;;6.30;99.90;;;;;;4996638;28;20109;-45
2023/03/06 09:06:37;;;;;;;14.88;10.32;;;6.20;99.90;;;;;;4994763;28;20022;-51
2023/03/06 09:09:04;;;;;;;13.68;10.30;;;6.10;99.90;;;;;;4994806;28;20029;-47
2023/03/06 09:11:29;;;;;;;15.00;10.30;;;6.00;99.90;;;;;;4994483;28;20038;-47
2023/03/06 09:13:55;;;;;;;20.38;10.73;;;6.10;99.90;;;;;;4994704;28;20080;-50
2023/03/06 09:16:23;;;;;;;17.17;10.95;;;6.00;99.90;;;;;;4994615;28;20037;-59
2023/03/06 09:18:51;;;;;;;17.63;10.57;;;6.00;99.90;;;;;;4994216;28;20507;-51
2023/03/06 09:21:17;;;;;;;16.20;10.98;;;6.00;99.90;;;;;;4994292;28;20022;-50
2023/03/06 09:23:43;;;;;;;25.30;11.23;;;6.00;99.90;;;;;;4994861;28;20501;-53
2023/03/06 09:26:09;;;;;;;18.63;11.57;;;6.00;99.90;;;;;;4991802;28;20030;-54
2023/03/06 09:28:37;;;;;;;16.17;10.57;;;6.00;99.90;;;;;;4986470;28;20037;-56
2023/03/06 09:31:17;;;;;;;16.00;10.30;;;6.10;99.90;;;;;;4983012;28;20031;-51
2023/03/06 09:33:43;;;;;;;16.48;11.80;;;6.10;99.90;;;;;;4989524;28;20037;-53
2023/03/06 09:36:17;;;;;;;21.05;11.15;;;6.10;99.90;;;;;;4993864;28;20026;-52
2023/03/06 09:38:44;;;;;;;21.27;14.20;;;6.00;99.90;;;;;;4994086;28;20557;-55
2023/03/06 09:41:27;;;;;;;96.03;50.60;;;5.90;99.90;;;;;;4994357;28;20014;-51
2023/03/06 09:44:03;;;;;;;16.88;12.00;;;6.00;99.90;;;;;;4994203;28;20077;-53
2023/03/06 09:46:47;;;;;;;14.65;10.63;;;5.90;99.90;;;;;;4992471;28;20114;-53
2023/03/06 09:49:41;;;;;;;20.15;12.25;;;6.10;99.90;;;;;;4992564;28;20026;-58
2023/03/06 09:52:37;;;;;;;17.40;10.25;;;6.50;99.90;;;;;;4993860;28;20104;-52
2023/03/06 09:55:16;;;;;;;15.40;11.07;;;6.60;99.90;;;;;;4925339;28;20035;-53
2023/03/06 09:57:56;;;;;;;15.10;10.32;;;6.60;99.90;;;;;;4993502;28;20026;-52
2023/03/06 10:00:30;;;;;;;18.90;11.85;;;6.50;99.90;;;;;;4992021;28;20282;-49
2023/03/06 10:03:22;;;;;;;19.83;12.32;;;6.50;99.90;;;;;;5007874;28;20521;-53
2023/03/06 10:06:13;;;;;;;15.65;10.10;;;6.30;99.90;;;;;;5012210;28;20129;-55
2023/03/06 10:08:51;;;;;;;17.52;11.18;;;6.40;99.90;;;;;;5003715;28;20034;-54
2023/03/06 10:11:31;;;;;;;14.05;9.80;;;6.50;99.90;;;;;;5012151;28;20025;-53
2023/03/06 10:14:19;;;;;;;15.48;9.90;;;6.60;99.90;;;;;;5012906;28;20392;-51
2023/03/06 10:16:44;;;;;;;13.20;9.20;;;6.60;99.90;;;;;;5001342;28;20026;-52
2023/03/06 10:19:14;;;;;;;17.20;10.05;;;6.80;99.90;;;;;;4989149;28;20398;-51
2023/03/06 10:21:46;;;;;;;14.63;10.10;;;6.80;99.90;;;;;;4993348;28;20058;-50
2023/03/06 10:24:33;;;;;;;19.15;11.18;;;6.90;99.90;;;;;;4993390;28;20089;-53
2023/03/06 10:27:32;;;;;;;15.43;10.60;;;6.90;99.90;;;;;;4993226;28;20085;-56
2023/03/06 10:30:17;;;;;;;16.05;10.57;;;6.90;99.90;;;;;;4993537;28;20486;-49
2023/03/06 10:33:07;;;;;;;15.65;9.88;;;6.90;99.90;;;;;;4993179;28;20049;-52
2023/03/06 10:35:43;;;;;;;14.80;10.18;;;6.80;99.90;;;;;;4993012;28;20038;-55
2023/03/06 10:38:47;;;;;;;14.77;10.52;;;6.50;99.90;;;;;;4990739;28;20037;-53
2023/03/06 10:41:13;;;;;;;20.42;10.48;;;6.50;99.90;;;;;;4942328;29;20027;-49
2023/03/06 10:43:40;;;;;;;15.07;10.70;;;6.50;99.90;;;;;;4952188;29;20031;-51
2023/03/06 10:46:07;;;;;;;15.40;11.10;;;6.50;99.90;;;;;;4971221;28;20031;-51
2023/03/06 10:48:37;;;;;;;19.20;11.20;;;6.40;99.90;;;;;;5008327;28;20030;-51
2023/03/06 10:51:21;;;;;;;14.98;10.93;;;6.30;99.90;;;;;;4993123;28;20061;-49
2023/03/06 10:53:57;;;;;;;17.10;11.65;;;6.30;99.90;;;;;;4992819;28;20529;-50
2023/03/06 10:56:36;;;;;;;17.60;10.85;;;6.40;99.90;;;;;;4992453;28;20038;-50
2023/03/06 10:59:18;;;;;;;18.38;10.43;;;6.40;99.90;;;;;;4991746;28;20057;-51
2023/03/06 11:01:45;;;;;;;19.70;11.63;;;6.50;99.90;;;;;;4992775;28;20572;-56
2023/03/06 11:04:15;;;;;;;16.73;11.23;;;6.70;99.90;;;;;;4992333;28;20069;-55
2023/03/06 11:06:42;;;;;;;18.60;11.20;;;7.00;99.90;;;;;;4991132;28;20058;-53
2023/03/06 11:09:23;;;;;;;16.98;11.45;;;7.20;99.90;;;;;;4992403;28;20446;-50
2023/03/06 11:11:49;;;;;;;14.82;10.02;;;7.20;99.90;;;;;;4992324;28;20031;-51
2023/03/06 11:14:21;;;;;;;17.30;11.82;;;7.10;99.90;;;;;;4992278;28;20037;-49
2023/03/06 11:16:52;;;;;;;15.50;11.43;;;7.10;99.90;;;;;;4992019;28;20050;-52
2023/03/06 11:19:26;;;;;;;16.17;11.27;;;7.20;99.90;;;;;;4991990;28;20559;-49
2023/03/06 11:22:21;;;;;;;19.50;10.85;;;7.00;99.90;;;;;;4990683;28;20064;-50
2023/03/06 11:24:49;;;;;;;19.15;11.82;;;6.90;99.90;;;;;;4979118;28;20081;-53
2023/03/06 11:27:33;;;;;;;19.42;11.10;;;6.80;99.90;;;;;;4977725;28;20022;-52
2023/03/06 11:30:04;;;;;;;16.00;10.20;;;6.80;99.90;;;;;;4991659;28;20098;-51
2023/03/06 11:32:39;;;;;;;15.63;10.80;;;6.80;99.90;;;;;;5002249;28;20054;-50
2023/03/06 11:35:10;;;;;;;19.95;11.05;;;6.80;99.90;;;;;;4990129;28;20096;-52
2023/03/06 11:37:52;;;;;;;16.33;10.73;;;6.90;99.90;;;;;;4990940;28;20034;-53
2023/03/06 11:40:35;;;;;;;50.10;25.00;;;6.90;99.90;;;;;;4990165;28;20030;-49
2023/03/06 11:43:19;;;;;;;21.30;11.85;;;7.00;99.90;;;;;;4990683;28;20030;-51
2023/03/06 11:46:14;;;;;;;14.85;10.55;;;7.10;99.90;;;;;;4990251;28;20139;-53
2023/03/06 11:49:04;;;;;;;16.20;10.07;;;7.10;99.90;;;;;;4972288;28;20506;-52
2023/03/06 11:51:34;;;;;;;17.90;10.80;;;7.20;99.90;;;;;;4994967;28;20046;-47
2023/03/06 11:54:00;;;;;;;15.40;10.98;;;7.40;99.90;;;;;;4991613;28;20019;-46
2023/03/06 11:56:37;;;;;;;19.63;11.38;;;7.40;99.90;;;;;;4991402;28;20074;-51
2023/03/06 11:59:12;;;;;;;18.10;10.85;;;7.30;99.90;;;;;;4990224;28;20172;-56
2023/03/06 12:02:10;;;;;;;17.70;11.57;;;7.30;99.90;;;;;;4990523;28;20439;-49
2023/03/06 12:04:47;;;;;;;17.80;10.63;;;7.40;99.90;;;;;;4991920;28;20371;-54
2023/03/06 12:07:19;;;;;;;19.30;12.85;;;7.50;99.90;;;;;;4975806;28;20093;-49
2023/03/06 12:10:07;;;;;;;19.98;12.82;;;7.70;99.90;;;;;;4993029;28;20045;-52
2023/03/06 12:13:24;;;;;;;17.17;11.20;;;7.80;99.90;;;;;;4995118;28;20026;-50
2023/03/06 12:16:26;;;;;;;18.40;11.68;;;7.80;99.90;;;;;;4956198;28;20034;-53
2023/03/06 12:19:21;;;;;;;18.52;11.77;;;7.70;99.90;;;;;;4992946;28;20022;-55
2023/03/06 12:22:27;;;;;;;23.42;12.60;;;7.70;99.90;;;;;;4977365;28;20031;-54
2023/03/06 12:25:08;;;;;;;16.77;11.45;;;7.70;99.90;;;;;;4992932;28;20015;-50
2023/03/06 12:27:52;;;;;;;16.63;10.98;;;7.50;99.90;;;;;;4993413;28;20026;-50
2023/03/06 12:30:40;;;;;;;16.73;10.82;;;7.50;99.90;;;;;;4993902;28;20053;-50
2023/03/06 12:33:16;;;;;;;17.67;11.32;;;7.50;99.90;;;;;;4994697;28;20101;-55
2023/03/06 12:36:20;;;;;;;16.90;10.75;;;7.40;99.90;;;;;;4994529;28;20026;-51
2023/03/06 12:39:07;;;;;;;17.65;10.98;;;7.40;99.90;;;;;;5009023;28;20031;-53
2023/03/06 12:41:44;;;;;;;19.63;10.88;;;7.40;99.90;;;;;;4993063;28;20105;-51
2023/03/06 12:44:37;;;;;;;17.27;11.07;;;7.50;99.90;;;;;;4992435;28;20037;-48
2023/03/06 12:47:09;;;;;;;15.00;9.38;;;7.60;99.90;;;;;;4986923;28;20033;-49
2023/03/06 12:49:37;;;;;;;16.48;9.13;;;7.60;99.30;;;;;;4993946;28;20057;-49
2023/03/06 12:52:05;;;;;;;15.65;9.93;;;7.50;99.30;;;;;;4989121;28;20026;-52
2023/03/06 12:54:35;;;;;;;13.98;9.38;;;7.50;99.30;;;;;;4994219;28;20391;-53
2023/03/06 12:57:01;;;;;;;16.60;10.27;;;7.50;99.50;;;;;;4994296;28;20052;-48
2023/03/06 12:59:46;;;;;;;15.23;10.90;;;7.60;99.50;;;;;;4993160;28;20517;-52